sensor_id;sensor_type;location;lat;lon;timestamp;P1;durP1;ratioP1;P2;durP2;ratioP2
14015;SDS011;7083;48.854;9.158;2023-05-14T00:01:53;1999.90;;;999.90;;
14015;SDS011;7083;48.854;9.158;2023-05-14T00:04:22;1999.90;;;999.90;;
14015;SDS011;7083;48.854;9.158;2023-05-14T00:06:49;1999.90;;;999.90;;
14015;SDS011;7083;48.854;9.158;2023-05-14T00:09:16;1999.90;;;999.90;;
14015;SDS011;7083;48.854;9.158;2023-05-14T00:11:43;1999.90;;;999.90;;
14015;SDS011;7083;48.854;9.158;2023-05-14T00:14:11;1999.90;;;999.90;;
14015;SDS011;7083;48.854;9.158;2023-05-14T00:16:38;1999.90;;;999.90;;
14015;SDS011;7083;48.854;9.158;2023-05-14T00:19:05;1999.90;;;999.90;;
14015;SDS011;7083;48.854;9.158;2023-05-14T00:21:33;1999.90;;;999.90;;
14015;SDS011;7083;48.854;9.158;2023-05-14T00:24:00;1999.90;;;999.90;;
14015;SDS011;7083;48.854;9.158;2023-05-14T00:26:27;1999.90;;;999.90;;
14015;SDS011;7083;48.854;9.158;2023-05-14T00:28:54;1999.90;;;999.90;;
14015;SDS011;7083;48.854;9.158;2023-05-14T00:31:21;1999.90;;;999.90;;
14015;SDS011;7083;48.854;9.158;2023-05-14T00:33:48;1999.90;;;999.90;;
14015;SDS011;7083;48.854;9.158;2023-05-14T00:36:15;1999.90;;;999.90;;
14015;SDS011;7083;48.854;9.158;2023-05-14T00:38:43;1999.90;;;999.90;;
14015;SDS011;7083;48.854;9.158;2023-05-14T00:41:10;1999.90;;;999.90;;
14015;SDS011;7083;48.854;9.158;2023-05-14T00:43:37;1999.90;;;999.90;;
14015;SDS011;7083;48.854;9.158;2023-05-14T00:46:04;1999.90;;;999.90;;
14015;SDS011;7083;48.854;9.158;2023-05-14T00:48:32;1999.90;;;999.90;;
14015;SDS011;7083;48.854;9.158;2023-05-14T00:50:59;1999.90;;;999.90;;
14015;SDS011;7083;48.854;9.158;2023-05-14T00:53:26;1999.90;;;999.90;;
14015;SDS011;7083;48.854;9.158;2023-05-14T00:55:54;1999.90;;;999.90;;
14015;SDS011;7083;48.854;9.158;2023-05-14T00:58:22;1999.90;;;999.90;;
14015;SDS011;7083;48.854;9.158;2023-05-14T01:00:49;1999.90;;;999.90;;
14015;SDS011;7083;48.854;9.158;2023-05-14T01:03:16;1999.90;;;999.90;;
14015;SDS011;7083;48.854;9.158;2023-05-14T01:05:45;1999.90;;;999.90;;
14015;SDS011;7083;48.854;9.158;2023-05-14T01:08:17;1999.90;;;999.90;;
14015;SDS011;7083;48.854;9.158;2023-05-14T01:10:48;1999.90;;;999.90;;
14015;SDS011;7083;48.854;9.158;2023-05-14T01:13:21;1999.90;;;999.90;;
14015;SDS011;7083;48.854;9.158;2023-05-14T01:15:51;1999.90;;;999.90;;
14015;SDS011;7083;48.854;9.158;2023-05-14T01:18:20;1999.90;;;999.90;;
14015;SDS011;7083;48.854;9.158;2023-05-14T01:20:48;1999.90;;;999.90;;
14015;SDS011;7083;48.854;9.158;2023-05-14T01:23:17;1999.90;;;999.90;;
14015;SDS011;7083;48.854;9.158;2023-05-14T01:25:44;1999.90;;;999.90;;
14015;SDS011;7083;48.854;9.158;2023-05-14T01:28:12;1999.90;;;999.90;;
14015;SDS011;7083;48.854;9.158;2023-05-14T01:30:43;1999.90;;;999.90;;
14015;SDS011;7083;48.854;9.158;2023-05-14T01:33:12;1999.90;;;999.90;;
14015;SDS011;7083;48.854;9.158;2023-05-14T01:35:39;1999.90;;;999.90;;
14015;SDS011;7083;48.854;9.158;2023-05-14T01:38:08;1999.90;;;999.90;;
14015;SDS011;7083;48.854;9.158;2023-05-14T01:40:37;1999.90;;;999.90;;
14015;SDS011;7083;48.854;9.158;2023-05-14T01:43:05;1999.90;;;999.90;;
14015;SDS011;7083;48.854;9.158;2023-05-14T01:45:33;1999.90;;;999.90;;
14015;SDS011;7083;48.854;9.158;2023-05-14T01:48:00;1999.90;;;999.90;;
14015;SDS011;7083;48.854;9.158;2023-05-14T01:50:28;1999.90;;;999.90;;
14015;SDS011;7083;48.854;9.158;2023-05-14T01:52:55;1999.90;;;999.90;;
14015;SDS011;7083;48.854;9.158;2023-05-14T01:55:22;1999.90;;;999.90;;
14015;SDS011;7083;48.854;9.158;2023-05-14T01:57:50;1999.90;;;999.90;;
14015;SDS011;7083;48.854;9.158;2023-05-14T02:00:17;1999.90;;;999.90;;
14015;SDS011;7083;48.854;9.158;2023-05-14T02:02:44;1999.90;;;999.90;;
14015;SDS011;7083;48.854;9.158;2023-05-14T02:05:12;1999.90;;;999.90;;
14015;SDS011;7083;48.854;9.158;2023-05-14T02:07:39;1999.90;;;999.90;;
14015;SDS011;7083;48.854;9.158;2023-05-14T02:10:06;1999.90;;;999.90;;
14015;SDS011;7083;48.854;9.158;2023-05-14T02:12:33;1999.90;;;999.90;;
14015;SDS011;7083;48.854;9.158;2023-05-14T02:15:02;1999.90;;;999.90;;
14015;SDS011;7083;48.854;9.158;2023-05-14T02:17:29;1999.90;;;999.90;;
14015;SDS011;7083;48.854;9.158;2023-05-14T02:19:56;1999.90;;;999.90;;
14015;SDS011;7083;48.854;9.158;2023-05-14T02:22:23;1999.90;;;999.90;;
14015;SDS011;7083;48.854;9.158;2023-05-14T02:24:50;1999.90;;;999.90;;
14015;SDS011;7083;48.854;9.158;2023-05-14T02:27:17;1999.90;;;999.90;;
14015;SDS011;7083;48.854;9.158;2023-05-14T02:29:45;1999.90;;;999.90;;
14015;SDS011;7083;48.854;9.158;2023-05-14T02:32:13;1999.90;;;999.90;;
14015;SDS011;7083;48.854;9.158;2023-05-14T02:34:40;1999.90;;;999.90;;
14015;SDS011;7083;48.854;9.158;2023-05-14T02:37:07;1999.90;;;999.90;;
14015;SDS011;7083;48.854;9.158;2023-05-14T02:39:34;1999.90;;;999.90;;
14015;SDS011;7083;48.854;9.158;2023-05-14T02:42:01;1999.90;;;999.90;;
14015;SDS011;7083;48.854;9.158;2023-05-14T02:44:28;1999.90;;;999.90;;
14015;SDS011;7083;48.854;9.158;2023-05-14T02:46:55;1999.90;;;999.90;;
14015;SDS011;7083;48.854;9.158;2023-05-14T02:49:24;1999.90;;;999.90;;
14015;SDS011;7083;48.854;9.158;2023-05-14T02:51:51;1999.90;;;999.90;;
14015;SDS011;7083;48.854;9.158;2023-05-14T02:54:18;1999.90;;;999.90;;
14015;SDS011;7083;48.854;9.158;2023-05-14T02:56:45;1999.90;;;999.90;;
14015;SDS011;7083;48.854;9.158;2023-05-14T02:59:12;1999.90;;;999.90;;
14015;SDS011;7083;48.854;9.158;2023-05-14T03:01:39;1999.90;;;999.90;;
14015;SDS011;7083;48.854;9.158;2023-05-14T03:04:06;1999.90;;;999.90;;
14015;SDS011;7083;48.854;9.158;2023-05-14T03:06:35;1999.90;;;999.90;;
14015;SDS011;7083;48.854;9.158;2023-05-14T03:09:02;1999.90;;;999.90;;
14015;SDS011;7083;48.854;9.158;2023-05-14T03:11:29;1999.90;;;999.90;;
14015;SDS011;7083;48.854;9.158;2023-05-14T03:13:56;1999.90;;;999.90;;
14015;SDS011;7083;48.854;9.158;2023-05-14T03:16:23;1999.90;;;999.90;;
14015;SDS011;7083;48.854;9.158;2023-05-14T03:18:50;1999.90;;;999.90;;
14015;SDS011;7083;48.854;9.158;2023-05-14T03:21:17;1999.90;;;999.90;;
14015;SDS011;7083;48.854;9.158;2023-05-14T03:23:45;1999.90;;;999.90;;
14015;SDS011;7083;48.854;9.158;2023-05-14T03:26:12;1999.90;;;999.90;;
14015;SDS011;7083;48.854;9.158;2023-05-14T03:28:39;1999.90;;;999.90;;
14015;SDS011;7083;48.854;9.158;2023-05-14T03:31:06;1999.90;;;999.90;;
14015;SDS011;7083;48.854;9.158;2023-05-14T03:33:33;1999.90;;;999.90;;
14015;SDS011;7083;48.854;9.158;2023-05-14T03:36:00;1999.90;;;999.90;;
14015;SDS011;7083;48.854;9.158;2023-05-14T03:38:27;1999.90;;;999.90;;
14015;SDS011;7083;48.854;9.158;2023-05-14T03:40:56;1999.90;;;999.90;;
14015;SDS011;7083;48.854;9.158;2023-05-14T03:43:23;1999.90;;;999.90;;
14015;SDS011;7083;48.854;9.158;2023-05-14T03:45:50;1999.90;;;999.90;;
14015;SDS011;7083;48.854;9.158;2023-05-14T03:48:17;1999.90;;;999.90;;
14015;SDS011;7083;48.854;9.158;2023-05-14T03:50:44;1999.90;;;999.90;;
14015;SDS011;7083;48.854;9.158;2023-05-14T03:53:11;1999.90;;;999.90;;
14015;SDS011;7083;48.854;9.158;2023-05-14T03:55:38;1999.90;;;999.90;;
14015;SDS011;7083;48.854;9.158;2023-05-14T03:58:06;1999.90;;;999.90;;
14015;SDS011;7083;48.854;9.158;2023-05-14T04:00:38;1999.90;;;999.90;;
14015;SDS011;7083;48.854;9.158;2023-05-14T04:03:05;1999.90;;;999.90;;
14015;SDS011;7083;48.854;9.158;2023-05-14T04:05:32;1999.90;;;999.90;;
14015;SDS011;7083;48.854;9.158;2023-05-14T04:07:59;1999.90;;;999.90;;
14015;SDS011;7083;48.854;9.158;2023-05-14T04:10:26;1999.90;;;999.90;;
14015;SDS011;7083;48.854;9.158;2023-05-14T04:12:53;1999.90;;;999.90;;
14015;SDS011;7083;48.854;9.158;2023-05-14T04:15:21;1999.90;;;999.90;;
14015;SDS011;7083;48.854;9.158;2023-05-14T04:17:49;1999.90;;;999.90;;
14015;SDS011;7083;48.854;9.158;2023-05-14T04:20:16;1999.90;;;999.90;;
14015;SDS011;7083;48.854;9.158;2023-05-14T04:22:43;1999.90;;;999.90;;
14015;SDS011;7083;48.854;9.158;2023-05-14T04:25:10;1999.90;;;999.90;;
14015;SDS011;7083;48.854;9.158;2023-05-14T04:27:37;1999.90;;;999.90;;
14015;SDS011;7083;48.854;9.158;2023-05-14T04:30:04;1999.90;;;999.90;;
14015;SDS011;7083;48.854;9.158;2023-05-14T04:32:33;1999.90;;;999.90;;
14015;SDS011;7083;48.854;9.158;2023-05-14T04:35:01;1999.90;;;999.90;;
14015;SDS011;7083;48.854;9.158;2023-05-14T04:37:28;1999.90;;;999.90;;
14015;SDS011;7083;48.854;9.158;2023-05-14T04:39:55;1999.90;;;999.90;;
14015;SDS011;7083;48.854;9.158;2023-05-14T04:42:22;1999.90;;;999.90;;
14015;SDS011;7083;48.854;9.158;2023-05-14T04:44:49;1999.90;;;999.90;;
14015;SDS011;7083;48.854;9.158;2023-05-14T04:47:16;1999.90;;;999.90;;
14015;SDS011;7083;48.854;9.158;2023-05-14T04:49:46;1999.90;;;999.90;;
14015;SDS011;7083;48.854;9.158;2023-05-14T04:52:13;1999.90;;;999.90;;
14015;SDS011;7083;48.854;9.158;2023-05-14T04:54:40;1999.90;;;999.90;;
14015;SDS011;7083;48.854;9.158;2023-05-14T04:57:07;1999.90;;;999.90;;
14015;SDS011;7083;48.854;9.158;2023-05-14T04:59:34;1999.90;;;999.90;;
14015;SDS011;7083;48.854;9.158;2023-05-14T05:02:01;1999.90;;;999.90;;
14015;SDS011;7083;48.854;9.158;2023-05-14T05:04:28;1999.90;;;999.90;;
14015;SDS011;7083;48.854;9.158;2023-05-14T05:06:56;1999.90;;;999.90;;
14015;SDS011;7083;48.854;9.158;2023-05-14T05:09:23;1999.90;;;999.90;;
14015;SDS011;7083;48.854;9.158;2023-05-14T05:11:50;1999.90;;;999.90;;
14015;SDS011;7083;48.854;9.158;2023-05-14T05:14:17;1999.90;;;999.90;;
14015;SDS011;7083;48.854;9.158;2023-05-14T05:16:44;1999.90;;;999.90;;
14015;SDS011;7083;48.854;9.158;2023-05-14T05:19:11;1999.90;;;999.90;;
14015;SDS011;7083;48.854;9.158;2023-05-14T05:21:38;1999.90;;;999.90;;
14015;SDS011;7083;48.854;9.158;2023-05-14T05:24:07;1999.90;;;999.90;;
14015;SDS011;7083;48.854;9.158;2023-05-14T05:26:34;1999.90;;;999.90;;
14015;SDS011;7083;48.854;9.158;2023-05-14T05:29:01;1999.90;;;999.90;;
14015;SDS011;7083;48.854;9.158;2023-05-14T05:31:28;1999.90;;;999.90;;
14015;SDS011;7083;48.854;9.158;2023-05-14T05:33:56;1999.90;;;999.90;;
14015;SDS011;7083;48.854;9.158;2023-05-14T05:36:23;1999.90;;;999.90;;
14015;SDS011;7083;48.854;9.158;2023-05-14T05:38:50;1999.90;;;999.90;;
14015;SDS011;7083;48.854;9.158;2023-05-14T05:41:18;1999.90;;;999.90;;
14015;SDS011;7083;48.854;9.158;2023-05-14T05:43:46;1999.90;;;999.90;;
14015;SDS011;7083;48.854;9.158;2023-05-14T05:46:13;1999.90;;;999.90;;
14015;SDS011;7083;48.854;9.158;2023-05-14T05:48:40;1999.90;;;999.90;;
14015;SDS011;7083;48.854;9.158;2023-05-14T05:51:07;1999.90;;;999.90;;
14015;SDS011;7083;48.854;9.158;2023-05-14T05:53:34;1999.90;;;999.90;;
14015;SDS011;7083;48.854;9.158;2023-05-14T05:56:01;1999.90;;;999.90;;
14015;SDS011;7083;48.854;9.158;2023-05-14T05:58:29;1999.90;;;999.90;;
14015;SDS011;7083;48.854;9.158;2023-05-14T06:00:56;1999.90;;;999.90;;
14015;SDS011;7083;48.854;9.158;2023-05-14T06:03:23;1999.90;;;999.90;;
14015;SDS011;7083;48.854;9.158;2023-05-14T06:05:51;1999.90;;;999.90;;
14015;SDS011;7083;48.854;9.158;2023-05-14T06:08:18;1999.90;;;999.90;;
14015;SDS011;7083;48.854;9.158;2023-05-14T06:10:45;1999.90;;;999.90;;
14015;SDS011;7083;48.854;9.158;2023-05-14T06:13:12;1999.90;;;999.90;;
14015;SDS011;7083;48.854;9.158;2023-05-14T06:15:40;1540.30;;;861.00;;
14015;SDS011;7083;48.854;9.158;2023-05-14T06:18:07;1549.87;;;869.80;;
14015;SDS011;7083;48.854;9.158;2023-05-14T06:20:34;1999.90;;;999.90;;
14015;SDS011;7083;48.854;9.158;2023-05-14T06:23:01;1999.90;;;999.90;;
14015;SDS011;7083;48.854;9.158;2023-05-14T06:25:28;1999.90;;;999.90;;
14015;SDS011;7083;48.854;9.158;2023-05-14T06:27:55;1999.90;;;999.90;;
14015;SDS011;7083;48.854;9.158;2023-05-14T06:30:22;1539.70;;;861.47;;
14015;SDS011;7083;48.854;9.158;2023-05-14T06:32:51;600.73;;;567.63;;
14015;SDS011;7083;48.854;9.158;2023-05-14T06:35:18;1537.57;;;859.73;;
14015;SDS011;7083;48.854;9.158;2023-05-14T06:37:45;589.20;;;557.50;;
14015;SDS011;7083;48.854;9.158;2023-05-14T06:40:13;629.73;;;594.97;;
14015;SDS011;7083;48.854;9.158;2023-05-14T06:42:40;614.00;;;580.27;;
14015;SDS011;7083;48.854;9.158;2023-05-14T06:45:07;548.07;;;518.13;;
14015;SDS011;7083;48.854;9.158;2023-05-14T06:47:34;1106.13;;;748.03;;
14015;SDS011;7083;48.854;9.158;2023-05-14T06:50:03;655.57;;;619.67;;
14015;SDS011;7083;48.854;9.158;2023-05-14T06:52:30;732.67;;;688.70;;
14015;SDS011;7083;48.854;9.158;2023-05-14T06:54:57;1267.30;;;892.60;;
14015;SDS011;7083;48.854;9.158;2023-05-14T06:57:25;862.60;;;805.00;;
14015;SDS011;7083;48.854;9.158;2023-05-14T06:59:52;1623.07;;;937.23;;
14015;SDS011;7083;48.854;9.158;2023-05-14T07:02:19;840.53;;;785.57;;
14015;SDS011;7083;48.854;9.158;2023-05-14T07:04:46;1999.90;;;999.90;;
14015;SDS011;7083;48.854;9.158;2023-05-14T07:07:14;1999.90;;;999.90;;
14015;SDS011;7083;48.854;9.158;2023-05-14T07:09:44;804.57;;;749.53;;
14015;SDS011;7083;48.854;9.158;2023-05-14T07:12:11;1999.90;;;999.90;;
14015;SDS011;7083;48.854;9.158;2023-05-14T07:14:38;1999.90;;;999.90;;
14015;SDS011;7083;48.854;9.158;2023-05-14T07:17:05;1999.90;;;999.90;;
14015;SDS011;7083;48.854;9.158;2023-05-14T07:19:32;1999.90;;;999.90;;
14015;SDS011;7083;48.854;9.158;2023-05-14T07:21:59;1999.90;;;999.90;;
14015;SDS011;7083;48.854;9.158;2023-05-14T07:24:28;1999.90;;;999.90;;
14015;SDS011;7083;48.854;9.158;2023-05-14T07:26:55;1999.90;;;999.90;;
14015;SDS011;7083;48.854;9.158;2023-05-14T07:29:22;1999.90;;;999.90;;
14015;SDS011;7083;48.854;9.158;2023-05-14T07:31:49;1999.90;;;999.90;;
14015;SDS011;7083;48.854;9.158;2023-05-14T07:34:17;1999.90;;;999.90;;
14015;SDS011;7083;48.854;9.158;2023-05-14T07:36:44;1999.90;;;999.90;;
14015;SDS011;7083;48.854;9.158;2023-05-14T07:39:11;1999.90;;;999.90;;
14015;SDS011;7083;48.854;9.158;2023-05-14T07:41:40;1999.90;;;999.90;;
14015;SDS011;7083;48.854;9.158;2023-05-14T07:44:07;1999.90;;;999.90;;
14015;SDS011;7083;48.854;9.158;2023-05-14T07:46:34;1999.90;;;999.90;;
14015;SDS011;7083;48.854;9.158;2023-05-14T07:49:01;1999.90;;;999.90;;
14015;SDS011;7083;48.854;9.158;2023-05-14T07:51:28;1999.90;;;999.90;;
14015;SDS011;7083;48.854;9.158;2023-05-14T07:53:55;1999.90;;;999.90;;
14015;SDS011;7083;48.854;9.158;2023-05-14T07:56:22;1999.90;;;999.90;;
14015;SDS011;7083;48.854;9.158;2023-05-14T07:58:51;1999.90;;;999.90;;
14015;SDS011;7083;48.854;9.158;2023-05-14T08:01:18;1999.90;;;999.90;;
14015;SDS011;7083;48.854;9.158;2023-05-14T08:03:45;1999.90;;;999.90;;
14015;SDS011;7083;48.854;9.158;2023-05-14T08:06:12;1999.90;;;999.90;;
14015;SDS011;7083;48.854;9.158;2023-05-14T08:08:39;1999.90;;;999.90;;
14015;SDS011;7083;48.854;9.158;2023-05-14T08:11:06;1999.90;;;999.90;;
14015;SDS011;7083;48.854;9.158;2023-05-14T08:13:33;1999.90;;;999.90;;
14015;SDS011;7083;48.854;9.158;2023-05-14T08:16:02;1999.90;;;999.90;;
14015;SDS011;7083;48.854;9.158;2023-05-14T08:18:29;1999.90;;;999.90;;
14015;SDS011;7083;48.854;9.158;2023-05-14T08:20:56;1999.90;;;999.90;;
14015;SDS011;7083;48.854;9.158;2023-05-14T08:23:23;1999.90;;;999.90;;
14015;SDS011;7083;48.854;9.158;2023-05-14T08:25:50;1999.90;;;999.90;;
14015;SDS011;7083;48.854;9.158;2023-05-14T08:28:17;1999.90;;;999.90;;
14015;SDS011;7083;48.854;9.158;2023-05-14T08:30:44;1999.90;;;999.90;;
14015;SDS011;7083;48.854;9.158;2023-05-14T08:33:12;1999.90;;;999.90;;
14015;SDS011;7083;48.854;9.158;2023-05-14T08:35:39;1999.90;;;999.90;;
14015;SDS011;7083;48.854;9.158;2023-05-14T08:38:06;1999.90;;;999.90;;
14015;SDS011;7083;48.854;9.158;2023-05-14T08:40:33;1999.90;;;999.90;;
14015;SDS011;7083;48.854;9.158;2023-05-14T08:43:01;1999.90;;;999.90;;
14015;SDS011;7083;48.854;9.158;2023-05-14T08:45:28;1999.90;;;999.90;;
14015;SDS011;7083;48.854;9.158;2023-05-14T08:47:58;748.30;;;703.70;;
14015;SDS011;7083;48.854;9.158;2023-05-14T08:50:26;751.50;;;705.70;;
14015;SDS011;7083;48.854;9.158;2023-05-14T08:52:54;1999.90;;;999.90;;
14015;SDS011;7083;48.854;9.158;2023-05-14T08:57:50;1999.90;;;999.90;;
14015;SDS011;7083;48.854;9.158;2023-05-14T09:00:16;1999.90;;;999.90;;
14015;SDS011;7083;48.854;9.158;2023-05-14T09:02:43;1999.90;;;999.90;;
14015;SDS011;7083;48.854;9.158;2023-05-14T09:05:11;1999.90;;;999.90;;
14015;SDS011;7083;48.854;9.158;2023-05-14T09:07:40;1999.90;;;999.90;;
14015;SDS011;7083;48.854;9.158;2023-05-14T09:10:07;1999.90;;;999.90;;
14015;SDS011;7083;48.854;9.158;2023-05-14T09:12:34;1999.90;;;999.90;;
14015;SDS011;7083;48.854;9.158;2023-05-14T09:15:01;1999.90;;;999.90;;
14015;SDS011;7083;48.854;9.158;2023-05-14T09:17:28;1999.90;;;999.90;;
14015;SDS011;7083;48.854;9.158;2023-05-14T09:19:55;1999.90;;;999.90;;
14015;SDS011;7083;48.854;9.158;2023-05-14T09:22:22;1999.90;;;999.90;;
14015;SDS011;7083;48.854;9.158;2023-05-14T09:25:01;1999.90;;;999.90;;
14015;SDS011;7083;48.854;9.158;2023-05-14T09:27:30;1999.90;;;999.90;;
14015;SDS011;7083;48.854;9.158;2023-05-14T09:30:03;1999.90;;;999.90;;
14015;SDS011;7083;48.854;9.158;2023-05-14T09:32:34;1999.90;;;999.90;;
14015;SDS011;7083;48.854;9.158;2023-05-14T09:35:09;1999.90;;;999.90;;
14015;SDS011;7083;48.854;9.158;2023-05-14T09:37:36;1999.90;;;999.90;;
14015;SDS011;7083;48.854;9.158;2023-05-14T09:40:08;1999.90;;;999.90;;
14015;SDS011;7083;48.854;9.158;2023-05-14T09:42:35;1999.90;;;999.90;;
14015;SDS011;7083;48.854;9.158;2023-05-14T09:45:01;1999.90;;;999.90;;
14015;SDS011;7083;48.854;9.158;2023-05-14T09:47:29;1999.90;;;999.90;;
14015;SDS011;7083;48.854;9.158;2023-05-14T09:49:56;1999.90;;;999.90;;
14015;SDS011;7083;48.854;9.158;2023-05-14T09:52:23;1999.90;;;999.90;;
14015;SDS011;7083;48.854;9.158;2023-05-14T09:54:50;1999.90;;;999.90;;
14015;SDS011;7083;48.854;9.158;2023-05-14T09:57:18;1999.90;;;999.90;;
14015;SDS011;7083;48.854;9.158;2023-05-14T09:59:45;1999.90;;;999.90;;
14015;SDS011;7083;48.854;9.158;2023-05-14T10:02:15;1999.90;;;999.90;;
14015;SDS011;7083;48.854;9.158;2023-05-14T10:04:46;1999.90;;;999.90;;
14015;SDS011;7083;48.854;9.158;2023-05-14T10:07:15;1999.90;;;999.90;;
14015;SDS011;7083;48.854;9.158;2023-05-14T10:09:44;1999.90;;;999.90;;
14015;SDS011;7083;48.854;9.158;2023-05-14T10:12:11;1999.90;;;999.90;;
14015;SDS011;7083;48.854;9.158;2023-05-14T10:14:44;1999.90;;;999.90;;
14015;SDS011;7083;48.854;9.158;2023-05-14T10:17:18;1999.90;;;999.90;;
14015;SDS011;7083;48.854;9.158;2023-05-14T10:19:49;1999.90;;;999.90;;
14015;SDS011;7083;48.854;9.158;2023-05-14T10:22:21;1999.90;;;999.90;;
14015;SDS011;7083;48.854;9.158;2023-05-14T10:24:48;1999.90;;;999.90;;
14015;SDS011;7083;48.854;9.158;2023-05-14T10:27:16;1999.90;;;999.90;;
14015;SDS011;7083;48.854;9.158;2023-05-14T10:29:47;1999.90;;;999.90;;
14015;SDS011;7083;48.854;9.158;2023-05-14T10:32:18;1999.90;;;999.90;;
14015;SDS011;7083;48.854;9.158;2023-05-14T10:34:45;1999.90;;;999.90;;
14015;SDS011;7083;48.854;9.158;2023-05-14T10:37:14;1999.90;;;999.90;;
14015;SDS011;7083;48.854;9.158;2023-05-14T10:39:43;1999.90;;;999.90;;
14015;SDS011;7083;48.854;9.158;2023-05-14T10:42:11;1999.90;;;999.90;;
14015;SDS011;7083;48.854;9.158;2023-05-14T10:44:40;1999.90;;;999.90;;
14015;SDS011;7083;48.854;9.158;2023-05-14T10:47:12;1999.90;;;999.90;;
14015;SDS011;7083;48.854;9.158;2023-05-14T10:49:40;1999.90;;;999.90;;
14015;SDS011;7083;48.854;9.158;2023-05-14T10:52:07;1999.90;;;999.90;;
14015;SDS011;7083;48.854;9.158;2023-05-14T10:54:34;1999.90;;;999.90;;
14015;SDS011;7083;48.854;9.158;2023-05-14T10:57:01;1999.90;;;999.90;;
14015;SDS011;7083;48.854;9.158;2023-05-14T10:59:28;1999.90;;;999.90;;
14015;SDS011;7083;48.854;9.158;2023-05-14T11:01:57;1999.90;;;999.90;;
14015;SDS011;7083;48.854;9.158;2023-05-14T11:04:23;1999.90;;;999.90;;
14015;SDS011;7083;48.854;9.158;2023-05-14T11:06:52;1999.90;;;999.90;;
14015;SDS011;7083;48.854;9.158;2023-05-14T11:09:20;1999.90;;;999.90;;
14015;SDS011;7083;48.854;9.158;2023-05-14T11:11:47;1999.90;;;999.90;;
14015;SDS011;7083;48.854;9.158;2023-05-14T11:14:14;1999.90;;;999.90;;
14015;SDS011;7083;48.854;9.158;2023-05-14T11:16:41;1999.90;;;999.90;;
14015;SDS011;7083;48.854;9.158;2023-05-14T11:19:09;1999.90;;;999.90;;
14015;SDS011;7083;48.854;9.158;2023-05-14T11:21:36;1999.90;;;999.90;;
14015;SDS011;7083;48.854;9.158;2023-05-14T11:24:03;1999.90;;;999.90;;
14015;SDS011;7083;48.854;9.158;2023-05-14T11:26:31;1999.90;;;999.90;;
14015;SDS011;7083;48.854;9.158;2023-05-14T11:28:58;1999.90;;;999.90;;
14015;SDS011;7083;48.854;9.158;2023-05-14T11:31:25;1999.90;;;999.90;;
14015;SDS011;7083;48.854;9.158;2023-05-14T11:33:52;1999.90;;;999.90;;
14015;SDS011;7083;48.854;9.158;2023-05-14T11:36:20;1999.90;;;999.90;;
14015;SDS011;7083;48.854;9.158;2023-05-14T11:38:47;1999.90;;;999.90;;
14015;SDS011;7083;48.854;9.158;2023-05-14T11:41:16;1999.90;;;999.90;;
14015;SDS011;7083;48.854;9.158;2023-05-14T11:43:44;1999.90;;;999.90;;
14015;SDS011;7083;48.854;9.158;2023-05-14T11:46:15;1999.90;;;999.90;;
14015;SDS011;7083;48.854;9.158;2023-05-14T11:48:43;1999.90;;;999.90;;
14015;SDS011;7083;48.854;9.158;2023-05-14T11:51:09;1999.90;;;999.90;;
14015;SDS011;7083;48.854;9.158;2023-05-14T11:53:37;1999.90;;;999.90;;
14015;SDS011;7083;48.854;9.158;2023-05-14T11:56:04;1999.90;;;999.90;;
14015;SDS011;7083;48.854;9.158;2023-05-14T11:58:31;1999.90;;;999.90;;
14015;SDS011;7083;48.854;9.158;2023-05-14T12:00:58;1999.90;;;999.90;;
14015;SDS011;7083;48.854;9.158;2023-05-14T12:03:25;1999.90;;;999.90;;
14015;SDS011;7083;48.854;9.158;2023-05-14T12:05:54;1999.90;;;999.90;;
14015;SDS011;7083;48.854;9.158;2023-05-14T12:08:22;1999.90;;;999.90;;
14015;SDS011;7083;48.854;9.158;2023-05-14T12:10:53;1999.90;;;999.90;;
14015;SDS011;7083;48.854;9.158;2023-05-14T12:13:20;1999.90;;;999.90;;
14015;SDS011;7083;48.854;9.158;2023-05-14T12:15:47;1999.90;;;999.90;;
14015;SDS011;7083;48.854;9.158;2023-05-14T12:18:20;1999.90;;;999.90;;
14015;SDS011;7083;48.854;9.158;2023-05-14T12:20:47;1999.90;;;999.90;;
14015;SDS011;7083;48.854;9.158;2023-05-14T12:23:15;1999.90;;;999.90;;
14015;SDS011;7083;48.854;9.158;2023-05-14T12:25:48;1999.90;;;999.90;;
14015;SDS011;7083;48.854;9.158;2023-05-14T12:28:17;1999.90;;;999.90;;
14015;SDS011;7083;48.854;9.158;2023-05-14T12:30:44;1999.90;;;999.90;;
14015;SDS011;7083;48.854;9.158;2023-05-14T12:33:11;1999.90;;;999.90;;
14015;SDS011;7083;48.854;9.158;2023-05-14T12:35:37;1999.90;;;999.90;;
14015;SDS011;7083;48.854;9.158;2023-05-14T12:38:04;1999.90;;;999.90;;
14015;SDS011;7083;48.854;9.158;2023-05-14T12:40:31;1999.90;;;999.90;;
14015;SDS011;7083;48.854;9.158;2023-05-14T12:42:58;1999.90;;;999.90;;
14015;SDS011;7083;48.854;9.158;2023-05-14T12:45:26;1999.90;;;999.90;;
14015;SDS011;7083;48.854;9.158;2023-05-14T12:47:52;1999.90;;;999.90;;
14015;SDS011;7083;48.854;9.158;2023-05-14T12:50:19;1999.90;;;999.90;;
14015;SDS011;7083;48.854;9.158;2023-05-14T12:52:46;1999.90;;;999.90;;
14015;SDS011;7083;48.854;9.158;2023-05-14T12:55:12;1999.90;;;999.90;;
14015;SDS011;7083;48.854;9.158;2023-05-14T12:57:39;1999.90;;;999.90;;
14015;SDS011;7083;48.854;9.158;2023-05-14T13:00:06;1999.90;;;999.90;;
14015;SDS011;7083;48.854;9.158;2023-05-14T13:02:36;1999.90;;;999.90;;
14015;SDS011;7083;48.854;9.158;2023-05-14T13:05:03;1999.90;;;999.90;;
14015;SDS011;7083;48.854;9.158;2023-05-14T13:07:30;1999.90;;;999.90;;
14015;SDS011;7083;48.854;9.158;2023-05-14T13:09:57;1999.90;;;999.90;;
14015;SDS011;7083;48.854;9.158;2023-05-14T13:12:24;1999.90;;;999.90;;
14015;SDS011;7083;48.854;9.158;2023-05-14T13:14:50;1999.90;;;999.90;;
14015;SDS011;7083;48.854;9.158;2023-05-14T13:17:17;1999.90;;;999.90;;
14015;SDS011;7083;48.854;9.158;2023-05-14T13:19:45;1999.90;;;999.90;;
14015;SDS011;7083;48.854;9.158;2023-05-14T13:22:12;1999.90;;;999.90;;
14015;SDS011;7083;48.854;9.158;2023-05-14T13:24:40;1999.90;;;999.90;;
14015;SDS011;7083;48.854;9.158;2023-05-14T13:27:07;1999.90;;;999.90;;
14015;SDS011;7083;48.854;9.158;2023-05-14T13:29:34;1999.90;;;999.90;;
14015;SDS011;7083;48.854;9.158;2023-05-14T13:32:01;1999.90;;;999.90;;
14015;SDS011;7083;48.854;9.158;2023-05-14T13:34:28;1999.90;;;999.90;;
14015;SDS011;7083;48.854;9.158;2023-05-14T13:36:56;1999.90;;;999.90;;
14015;SDS011;7083;48.854;9.158;2023-05-14T13:39:22;1999.90;;;999.90;;
14015;SDS011;7083;48.854;9.158;2023-05-14T13:41:51;1999.90;;;999.90;;
14015;SDS011;7083;48.854;9.158;2023-05-14T13:44:17;1999.90;;;999.90;;
14015;SDS011;7083;48.854;9.158;2023-05-14T13:46:44;1999.90;;;999.90;;
14015;SDS011;7083;48.854;9.158;2023-05-14T13:49:11;1999.90;;;999.90;;
14015;SDS011;7083;48.854;9.158;2023-05-14T13:51:37;1999.90;;;999.90;;
14015;SDS011;7083;48.854;9.158;2023-05-14T13:54:05;1999.90;;;999.90;;
14015;SDS011;7083;48.854;9.158;2023-05-14T13:56:32;1999.90;;;999.90;;
14015;SDS011;7083;48.854;9.158;2023-05-14T13:58:59;1999.90;;;999.90;;
14015;SDS011;7083;48.854;9.158;2023-05-14T14:01:26;1999.90;;;999.90;;